AirNav   Everest Fuels
 
 343 users online  

4MA4 J K L Heliport
New Bedford, Massachusetts, USA

GOING TO NEW BEDFORD?


FAA INFORMATION EFFECTIVE 03 DECEMBER 2020

Location

FAA Identifier: 4MA4
Lat/Long: 41-37-17.3700N 071-00-47.1400W
41-37.289500N 071-00.785667W
41.6214917,-71.0130944
(estimated)
Elevation: 30 ft. / 9 m (estimated)
Variation: 16W (1995)
From city: 6 miles SW of NEW BEDFORD, MA
Time zone: UTC -5 (UTC -4 during Daylight Saving Time)
Zip code: 02747

Heliport Operations

Heliport use: Private use. Permission required prior to landing
Activation date: 01/1998
Control tower: no
ARTCC: BOSTON CENTER
FSS: BRIDGEPORT FLIGHT SERVICE STATION
Attendance: UNATNDD
Wind indicator: yes
Segmented circle: no

Heliport Communications

WX ASOS at EWB (4 nm NE): 126.85 (508-992-0195)
WX ASOS at UUU (13 nm SW): 132.075 (401-846-5910)
WX ASOS at TAN (15 nm N): 132.675 (508-824-5005)
WX ASOS at OQU (18 nm W): 118.6
WX ASOS at PVD (20 nm W): 124.2 (401-734-2818)

Nearby radio navigation aids

VOR radial/distance  VOR name  Freq  Var
PVDr122/19.7PROVIDENCE VOR/DME115.6014W
MVYr322/22.5MARTHAS VINEYARD VOR/DME114.5015W
SEYr058/37.2SANDY POINT VOR/DME117.8015W

Heliport Services

Runway Information

Helipad H1

Dimensions: 50 x 50 ft. / 15 x 15 m
Surface: turf
Traffic pattern: leftleft

Heliport Ownership and Management from official FAA records

Ownership: Privately-owned
Owner: JOSEPH J. LUIZ
5 STRAWBERRY LANE
NORTH DARTMOUTH, MA 02747
Phone 508-525-5700
Manager: JOSEPH J. LUIZ
5 STRAWBERRY LANE
NORTH DARTMOUTH, MA 02747
Phone 508-525-5700

Heliport Operational Statistics

Aircraft based on the field: 1
Helicopters: 1
    

Additional Remarks

A52-H1 +35 FT TREES 143 FT W; +25 FT TREES 88 FT N; +50 FT TREES 263 FT E; +25 FT HOUSE 150 FT S.
FOR CD CTC PROVIDENCE APCH AT 401-738-8945, WHEN APCH CLSD CTC BOSTON ARTCC AT 603-879-6859.

Instrument Procedures

There are no published instrument procedures at 4MA4.

Some nearby airports with instrument procedures:

KEWB - New Bedford Regional Airport (4 nm NE)
KUUU - Newport State Airport (13 nm SW)
KTAN - Taunton Municipal Airport - King Field (15 nm N)
KOQU - Quonset State Airport (18 nm W)
KPVD - Theodore Francis Green State Airport (20 nm W)
 
Loc | Ops | Rwys | IFR | FBO | Links
Com | Nav | Svcs | Stats | Notes
Area around 4MA4 (J K L Heliport)
 
Road maps at: MapQuest Bing Google
 
Aerial photo
No photo
 
Sectional chart

 
Airport distance calculator
Flying to J K L Heliport? Find the distance to fly.

From to 4MA4

Sunrise and sunset
Times for 03-Dec-2020
 Local
(UTC-5)
 Zulu
(UTC)
Morning civil twilight06:2411:24
Sunrise06:5511:55
Sunset16:1321:13
Evening civil twilight16:4421:44

Current date and time
Zulu (UTC)  03-Dec-2020 10:08:23
Local (UTC-5)  03-Dec-2020 05:08:23
 
METAR
KEWB 
5nm NE 
030953Z AUTO 21005KT 10SM CLR 01/M04 A3011 RMK AO2 SLP196 T00111039
KUUU 
13nm SW 
030953Z AUTO VRB04KT 10SM CLR 02/M04 A3011 RMK AO2 SLP198 T00171039
KTAN 
16nm N 
030952Z AUTO 22004KT 10SM CLR 01/M04 A3010 RMK AO2 SLP194 T00111044 $
KOQU 
18nm W 
030350Z 26015KT 10SM BKN045 04/M02 A3004 RMK LAST
KPVD 
20nm W 
030951Z 23004KT 10SM CLR 00/M05 A3012 RMK AO2 SLP200 T00001050
TAF
KPVD 
20nm W 
030540Z 0306/0406 25010KT P6SM OVC050 FM031800 23010G17KT P6SM SKC FM040100 23007KT P6SM SCT200
KFMH 
22nm E 
030540Z 0306/0406 27011G22KT P6SM SKC FM030800 26009KT P6SM SKC FM031600 24011G18KT P6SM SKC FM032300 24012KT P6SM SCT250
NOTAMs
Click for the latest NOTAMs
NOTAMs are issued by the DoD/FAA and will open in a separate window not controlled by AirNav.

 

 
 

Would you like to see your business listed on this page?

 If your business provides an interesting product or service to pilots, flight crews, aircraft, or users of the J K L Heliport, you should consider listing it here.  To start the listing process, click on the button below
 
Add a business
 

Other Pages about J K L Heliport

Update a link
 
Copyright © AirNav, LLC. All rights reserved. Privacy Policy  Contact